sensor_id;sensor_type;location;lat;lon;timestamp;P1;durP1;ratioP1;P2;durP2;ratioP2
1446;SDS011;717;51.522;7.266;2023-05-07T00:00:05;12.35;;;11.18;;
1446;SDS011;717;51.522;7.266;2023-05-07T00:02:36;11.75;;;10.65;;
1446;SDS011;717;51.522;7.266;2023-05-07T00:05:06;12.25;;;11.13;;
1446;SDS011;717;51.522;7.266;2023-05-07T00:07:35;12.55;;;11.25;;
1446;SDS011;717;51.522;7.266;2023-05-07T00:10:07;12.90;;;11.80;;
1446;SDS011;717;51.522;7.266;2023-05-07T00:12:37;12.70;;;11.60;;
1446;SDS011;717;51.522;7.266;2023-05-07T00:15:06;13.70;;;12.30;;
1446;SDS011;717;51.522;7.266;2023-05-07T00:17:36;12.40;;;11.35;;
1446;SDS011;717;51.522;7.266;2023-05-07T00:20:05;13.40;;;12.20;;
1446;SDS011;717;51.522;7.266;2023-05-07T00:22:34;13.57;;;12.27;;
1446;SDS011;717;51.522;7.266;2023-05-07T00:25:03;12.98;;;11.82;;
1446;SDS011;717;51.522;7.266;2023-05-07T00:27:35;12.75;;;11.45;;
1446;SDS011;717;51.522;7.266;2023-05-07T00:30:05;12.85;;;11.65;;
1446;SDS011;717;51.522;7.266;2023-05-07T00:32:34;11.80;;;10.75;;
1446;SDS011;717;51.522;7.266;2023-05-07T00:35:03;12.27;;;11.07;;
1446;SDS011;717;51.522;7.266;2023-05-07T00:37:33;13.57;;;12.20;;
1446;SDS011;717;51.522;7.266;2023-05-07T00:40:02;12.63;;;11.52;;
1446;SDS011;717;51.522;7.266;2023-05-07T00:42:35;13.07;;;11.55;;
1446;SDS011;717;51.522;7.266;2023-05-07T00:45:04;13.00;;;11.70;;
1446;SDS011;717;51.522;7.266;2023-05-07T00:47:35;13.13;;;11.95;;
1446;SDS011;717;51.522;7.266;2023-05-07T00:50:05;13.60;;;12.27;;
1446;SDS011;717;51.522;7.266;2023-05-07T00:52:35;12.63;;;11.52;;
1446;SDS011;717;51.522;7.266;2023-05-07T00:55:07;13.52;;;12.32;;
1446;SDS011;717;51.522;7.266;2023-05-07T00:57:39;14.05;;;12.85;;
1446;SDS011;717;51.522;7.266;2023-05-07T01:00:09;13.90;;;12.48;;
1446;SDS011;717;51.522;7.266;2023-05-07T01:02:38;14.30;;;12.90;;
1446;SDS011;717;51.522;7.266;2023-05-07T01:05:08;13.95;;;12.73;;
1446;SDS011;717;51.522;7.266;2023-05-07T01:07:40;14.75;;;13.35;;
1446;SDS011;717;51.522;7.266;2023-05-07T01:10:10;13.77;;;12.57;;
1446;SDS011;717;51.522;7.266;2023-05-07T01:12:42;15.00;;;13.63;;
1446;SDS011;717;51.522;7.266;2023-05-07T01:15:12;14.73;;;13.35;;
1446;SDS011;717;51.522;7.266;2023-05-07T01:17:41;15.05;;;13.75;;
1446;SDS011;717;51.522;7.266;2023-05-07T01:20:11;14.65;;;13.32;;
1446;SDS011;717;51.522;7.266;2023-05-07T01:22:42;14.95;;;13.55;;
1446;SDS011;717;51.522;7.266;2023-05-07T01:25:11;15.05;;;13.65;;
1446;SDS011;717;51.522;7.266;2023-05-07T01:27:41;14.15;;;12.90;;
1446;SDS011;717;51.522;7.266;2023-05-07T01:30:10;15.50;;;14.10;;
1446;SDS011;717;51.522;7.266;2023-05-07T01:32:41;14.52;;;13.23;;
1446;SDS011;717;51.522;7.266;2023-05-07T01:35:12;15.35;;;13.95;;
1446;SDS011;717;51.522;7.266;2023-05-07T01:37:47;15.60;;;14.18;;
1446;SDS011;717;51.522;7.266;2023-05-07T01:40:17;14.75;;;13.40;;
1446;SDS011;717;51.522;7.266;2023-05-07T01:42:46;14.90;;;13.60;;
1446;SDS011;717;51.522;7.266;2023-05-07T01:45:15;16.27;;;14.77;;
1446;SDS011;717;51.522;7.266;2023-05-07T01:47:44;16.75;;;15.18;;
1446;SDS011;717;51.522;7.266;2023-05-07T01:50:13;16.15;;;14.55;;
1446;SDS011;717;51.522;7.266;2023-05-07T01:52:49;16.35;;;14.75;;
1446;SDS011;717;51.522;7.266;2023-05-07T01:55:18;16.60;;;15.02;;
1446;SDS011;717;51.522;7.266;2023-05-07T01:57:46;16.38;;;14.88;;
1446;SDS011;717;51.522;7.266;2023-05-07T02:00:16;16.67;;;15.07;;
1446;SDS011;717;51.522;7.266;2023-05-07T02:02:45;17.23;;;15.57;;
1446;SDS011;717;51.522;7.266;2023-05-07T02:05:14;16.48;;;14.98;;
1446;SDS011;717;51.522;7.266;2023-05-07T02:07:42;15.82;;;14.25;;
1446;SDS011;717;51.522;7.266;2023-05-07T02:10:13;15.85;;;14.45;;
1446;SDS011;717;51.522;7.266;2023-05-07T02:12:42;16.25;;;14.68;;
1446;SDS011;717;51.522;7.266;2023-05-07T02:15:11;15.88;;;14.50;;
1446;SDS011;717;51.522;7.266;2023-05-07T02:17:39;15.55;;;14.18;;
1446;SDS011;717;51.522;7.266;2023-05-07T02:20:26;15.57;;;13.98;;
1446;SDS011;717;51.522;7.266;2023-05-07T02:22:55;16.35;;;14.80;;
1446;SDS011;717;51.522;7.266;2023-05-07T02:25:26;16.00;;;14.60;;
1446;SDS011;717;51.522;7.266;2023-05-07T02:27:55;16.45;;;15.05;;
1446;SDS011;717;51.522;7.266;2023-05-07T02:30:24;16.33;;;14.93;;
1446;SDS011;717;51.522;7.266;2023-05-07T02:32:53;17.42;;;15.82;;
1446;SDS011;717;51.522;7.266;2023-05-07T02:35:21;17.70;;;15.90;;
1446;SDS011;717;51.522;7.266;2023-05-07T02:37:51;17.25;;;15.65;;
1446;SDS011;717;51.522;7.266;2023-05-07T02:40:20;17.17;;;15.57;;
1446;SDS011;717;51.522;7.266;2023-05-07T02:42:51;16.33;;;14.93;;
1446;SDS011;717;51.522;7.266;2023-05-07T02:45:20;16.60;;;15.07;;
1446;SDS011;717;51.522;7.266;2023-05-07T02:47:48;15.70;;;14.30;;
1446;SDS011;717;51.522;7.266;2023-05-07T02:50:17;16.60;;;15.20;;
1446;SDS011;717;51.522;7.266;2023-05-07T02:52:46;16.52;;;15.18;;
1446;SDS011;717;51.522;7.266;2023-05-07T02:55:15;16.50;;;14.90;;
1446;SDS011;717;51.522;7.266;2023-05-07T02:57:43;16.05;;;14.55;;
1446;SDS011;717;51.522;7.266;2023-05-07T03:00:16;16.70;;;15.02;;
1446;SDS011;717;51.522;7.266;2023-05-07T03:02:46;15.30;;;13.95;;
1446;SDS011;717;51.522;7.266;2023-05-07T03:05:14;15.88;;;14.38;;
1446;SDS011;717;51.522;7.266;2023-05-07T03:07:43;16.70;;;15.20;;
1446;SDS011;717;51.522;7.266;2023-05-07T03:10:12;16.15;;;14.75;;
1446;SDS011;717;51.522;7.266;2023-05-07T03:12:41;16.42;;;15.02;;
1446;SDS011;717;51.522;7.266;2023-05-07T03:15:10;18.23;;;16.48;;
1446;SDS011;717;51.522;7.266;2023-05-07T03:17:41;18.02;;;16.52;;
1446;SDS011;717;51.522;7.266;2023-05-07T03:20:10;17.80;;;16.20;;
1446;SDS011;717;51.522;7.266;2023-05-07T03:22:39;18.73;;;17.10;;
1446;SDS011;717;51.522;7.266;2023-05-07T03:25:08;17.98;;;16.45;;
1446;SDS011;717;51.522;7.266;2023-05-07T03:27:37;18.35;;;16.55;;
1446;SDS011;717;51.522;7.266;2023-05-07T03:30:07;18.63;;;16.92;;
1446;SDS011;717;51.522;7.266;2023-05-07T03:32:36;19.20;;;17.40;;
1446;SDS011;717;51.522;7.266;2023-05-07T03:35:08;19.08;;;17.25;;
1446;SDS011;717;51.522;7.266;2023-05-07T03:37:37;18.33;;;16.67;;
1446;SDS011;717;51.522;7.266;2023-05-07T03:40:06;19.42;;;17.55;;
1446;SDS011;717;51.522;7.266;2023-05-07T03:42:35;20.08;;;17.85;;
1446;SDS011;717;51.522;7.266;2023-05-07T03:45:04;19.40;;;17.42;;
1446;SDS011;717;51.522;7.266;2023-05-07T03:47:34;19.63;;;17.73;;
1446;SDS011;717;51.522;7.266;2023-05-07T03:50:02;19.33;;;17.48;;
1446;SDS011;717;51.522;7.266;2023-05-07T03:52:34;19.42;;;17.67;;
1446;SDS011;717;51.522;7.266;2023-05-07T03:55:03;20.33;;;18.42;;
1446;SDS011;717;51.522;7.266;2023-05-07T03:57:32;18.70;;;16.85;;
1446;SDS011;717;51.522;7.266;2023-05-07T04:00:01;19.55;;;17.65;;
1446;SDS011;717;51.522;7.266;2023-05-07T04:02:31;19.33;;;17.50;;
1446;SDS011;717;51.522;7.266;2023-05-07T04:05:01;18.33;;;16.63;;
1446;SDS011;717;51.522;7.266;2023-05-07T04:07:30;19.42;;;17.63;;
1446;SDS011;717;51.522;7.266;2023-05-07T04:10:01;18.25;;;16.65;;
1446;SDS011;717;51.522;7.266;2023-05-07T04:12:30;18.08;;;16.38;;
1446;SDS011;717;51.522;7.266;2023-05-07T04:14:58;18.25;;;16.75;;
1446;SDS011;717;51.522;7.266;2023-05-07T04:17:27;18.92;;;17.15;;
1446;SDS011;717;51.522;7.266;2023-05-07T04:19:56;16.52;;;14.95;;
1446;SDS011;717;51.522;7.266;2023-05-07T04:22:24;16.02;;;14.70;;
1446;SDS011;717;51.522;7.266;2023-05-07T04:24:53;15.98;;;14.48;;
1446;SDS011;717;51.522;7.266;2023-05-07T04:27:24;15.10;;;13.80;;
1446;SDS011;717;51.522;7.266;2023-05-07T04:29:53;15.05;;;13.65;;
1446;SDS011;717;51.522;7.266;2023-05-07T04:32:22;15.68;;;14.05;;
1446;SDS011;717;51.522;7.266;2023-05-07T04:34:51;14.77;;;13.43;;
1446;SDS011;717;51.522;7.266;2023-05-07T04:37:20;14.40;;;13.13;;
1446;SDS011;717;51.522;7.266;2023-05-07T04:39:49;13.23;;;12.13;;
1446;SDS011;717;51.522;7.266;2023-05-07T04:42:17;13.45;;;12.25;;
1446;SDS011;717;51.522;7.266;2023-05-07T04:44:51;12.52;;;11.43;;
1446;SDS011;717;51.522;7.266;2023-05-07T04:47:21;13.05;;;11.65;;
1446;SDS011;717;51.522;7.266;2023-05-07T04:49:49;13.07;;;11.85;;
1446;SDS011;717;51.522;7.266;2023-05-07T04:52:18;12.57;;;11.38;;
1446;SDS011;717;51.522;7.266;2023-05-07T04:54:46;12.35;;;11.30;;
1446;SDS011;717;51.522;7.266;2023-05-07T04:57:15;12.32;;;11.32;;
1446;SDS011;717;51.522;7.266;2023-05-07T04:59:44;12.60;;;11.45;;
1446;SDS011;717;51.522;7.266;2023-05-07T05:02:15;13.68;;;12.48;;
1446;SDS011;717;51.522;7.266;2023-05-07T05:04:44;14.52;;;13.23;;
1446;SDS011;717;51.522;7.266;2023-05-07T05:07:13;14.05;;;12.85;;
1446;SDS011;717;51.522;7.266;2023-05-07T05:09:41;14.70;;;13.40;;
1446;SDS011;717;51.522;7.266;2023-05-07T05:12:10;12.80;;;11.70;;
1446;SDS011;717;51.522;7.266;2023-05-07T05:14:38;13.40;;;12.13;;
1446;SDS011;717;51.522;7.266;2023-05-07T05:17:08;13.38;;;12.27;;
1446;SDS011;717;51.522;7.266;2023-05-07T05:19:39;13.45;;;12.25;;
1446;SDS011;717;51.522;7.266;2023-05-07T05:22:07;13.30;;;12.10;;
1446;SDS011;717;51.522;7.266;2023-05-07T05:24:36;14.07;;;12.77;;
1446;SDS011;717;51.522;7.266;2023-05-07T05:27:04;12.73;;;11.57;;
1446;SDS011;717;51.522;7.266;2023-05-07T05:29:33;12.70;;;11.60;;
1446;SDS011;717;51.522;7.266;2023-05-07T05:32:02;11.82;;;10.73;;
1446;SDS011;717;51.522;7.266;2023-05-07T05:34:30;11.50;;;10.43;;
1446;SDS011;717;51.522;7.266;2023-05-07T05:37:01;10.48;;;9.68;;
1446;SDS011;717;51.522;7.266;2023-05-07T05:39:30;9.80;;;8.90;;
1446;SDS011;717;51.522;7.266;2023-05-07T05:41:58;9.98;;;9.05;;
1446;SDS011;717;51.522;7.266;2023-05-07T05:44:27;9.82;;;9.00;;
1446;SDS011;717;51.522;7.266;2023-05-07T05:46:56;9.75;;;8.85;;
1446;SDS011;717;51.522;7.266;2023-05-07T05:49:25;10.20;;;9.20;;
1446;SDS011;717;51.522;7.266;2023-05-07T05:51:53;9.48;;;8.57;;
1446;SDS011;717;51.522;7.266;2023-05-07T05:54:24;11.52;;;10.00;;
1446;SDS011;717;51.522;7.266;2023-05-07T05:56:53;10.27;;;9.45;;
1446;SDS011;717;51.522;7.266;2023-05-07T05:59:21;11.18;;;10.27;;
1446;SDS011;717;51.522;7.266;2023-05-07T06:01:50;11.85;;;10.80;;
1446;SDS011;717;51.522;7.266;2023-05-07T06:04:19;14.23;;;13.00;;
1446;SDS011;717;51.522;7.266;2023-05-07T06:06:47;14.63;;;13.32;;
1446;SDS011;717;51.522;7.266;2023-05-07T06:09:16;14.43;;;13.13;;
1446;SDS011;717;51.522;7.266;2023-05-07T06:11:47;13.35;;;12.15;;
1446;SDS011;717;51.522;7.266;2023-05-07T06:14:16;14.55;;;13.35;;
1446;SDS011;717;51.522;7.266;2023-05-07T06:16:45;15.38;;;14.13;;
1446;SDS011;717;51.522;7.266;2023-05-07T06:19:13;16.17;;;14.75;;
1446;SDS011;717;51.522;7.266;2023-05-07T06:21:43;16.77;;;15.40;;
1446;SDS011;717;51.522;7.266;2023-05-07T06:24:11;15.10;;;13.70;;
1446;SDS011;717;51.522;7.266;2023-05-07T06:26:40;14.82;;;13.63;;
1446;SDS011;717;51.522;7.266;2023-05-07T06:29:11;14.75;;;13.45;;
1446;SDS011;717;51.522;7.266;2023-05-07T06:31:40;12.65;;;11.57;;
1446;SDS011;717;51.522;7.266;2023-05-07T06:34:08;11.75;;;10.75;;
1446;SDS011;717;51.522;7.266;2023-05-07T06:36:39;12.35;;;11.27;;
1446;SDS011;717;51.522;7.266;2023-05-07T06:39:07;11.63;;;10.70;;
1446;SDS011;717;51.522;7.266;2023-05-07T06:41:36;10.68;;;9.77;;
1446;SDS011;717;51.522;7.266;2023-05-07T06:44:05;10.35;;;9.43;;
1446;SDS011;717;51.522;7.266;2023-05-07T06:46:36;10.27;;;9.38;;
1446;SDS011;717;51.522;7.266;2023-05-07T06:49:04;9.35;;;8.52;;
1446;SDS011;717;51.522;7.266;2023-05-07T06:51:33;10.25;;;9.00;;
1446;SDS011;717;51.522;7.266;2023-05-07T06:54:01;10.50;;;9.50;;
1446;SDS011;717;51.522;7.266;2023-05-07T06:56:30;9.63;;;8.77;;
1446;SDS011;717;51.522;7.266;2023-05-07T06:58:59;8.88;;;8.07;;
1446;SDS011;717;51.522;7.266;2023-05-07T07:01:28;9.82;;;8.82;;
1446;SDS011;717;51.522;7.266;2023-05-07T07:04:00;9.48;;;8.68;;
1446;SDS011;717;51.522;7.266;2023-05-07T07:06:28;8.73;;;7.95;;
1446;SDS011;717;51.522;7.266;2023-05-07T07:08:57;9.05;;;8.15;;
1446;SDS011;717;51.522;7.266;2023-05-07T07:11:26;8.23;;;7.55;;
1446;SDS011;717;51.522;7.266;2023-05-07T07:13:54;9.02;;;8.20;;
1446;SDS011;717;51.522;7.266;2023-05-07T07:16:24;8.23;;;7.50;;
1446;SDS011;717;51.522;7.266;2023-05-07T07:18:52;8.27;;;7.40;;
1446;SDS011;717;51.522;7.266;2023-05-07T07:21:23;8.55;;;6.78;;
1446;SDS011;717;51.522;7.266;2023-05-07T07:23:52;6.78;;;6.05;;
1446;SDS011;717;51.522;7.266;2023-05-07T07:26:21;7.45;;;5.95;;
1446;SDS011;717;51.522;7.266;2023-05-07T07:28:49;6.97;;;6.35;;
1446;SDS011;717;51.522;7.266;2023-05-07T07:31:18;7.18;;;6.57;;
1446;SDS011;717;51.522;7.266;2023-05-07T07:33:46;6.50;;;5.97;;
1446;SDS011;717;51.522;7.266;2023-05-07T07:36:15;6.82;;;6.20;;
1446;SDS011;717;51.522;7.266;2023-05-07T07:38:46;6.55;;;5.93;;
1446;SDS011;717;51.522;7.266;2023-05-07T07:41:15;6.82;;;6.15;;
1446;SDS011;717;51.522;7.266;2023-05-07T07:43:43;6.40;;;5.80;;
1446;SDS011;717;51.522;7.266;2023-05-07T07:46:12;6.05;;;5.38;;
1446;SDS011;717;51.522;7.266;2023-05-07T07:48:41;5.00;;;4.60;;
1446;SDS011;717;51.522;7.266;2023-05-07T07:51:09;6.68;;;5.32;;
1446;SDS011;717;51.522;7.266;2023-05-07T07:53:38;5.47;;;4.93;;
1446;SDS011;717;51.522;7.266;2023-05-07T07:56:09;5.47;;;4.97;;
1446;SDS011;717;51.522;7.266;2023-05-07T07:58:37;5.85;;;4.80;;
1446;SDS011;717;51.522;7.266;2023-05-07T08:01:06;5.68;;;5.18;;
1446;SDS011;717;51.522;7.266;2023-05-07T08:03:37;5.78;;;5.15;;
1446;SDS011;717;51.522;7.266;2023-05-07T08:06:05;6.47;;;5.88;;
1446;SDS011;717;51.522;7.266;2023-05-07T08:08:34;6.65;;;6.05;;
1446;SDS011;717;51.522;7.266;2023-05-07T08:11:03;6.28;;;5.78;;
1446;SDS011;717;51.522;7.266;2023-05-07T08:13:34;6.65;;;5.93;;
1446;SDS011;717;51.522;7.266;2023-05-07T08:16:03;6.60;;;6.00;;
1446;SDS011;717;51.522;7.266;2023-05-07T08:18:32;6.82;;;6.22;;
1446;SDS011;717;51.522;7.266;2023-05-07T08:21:00;6.30;;;5.70;;
1446;SDS011;717;51.522;7.266;2023-05-07T08:23:29;6.75;;;6.15;;
1446;SDS011;717;51.522;7.266;2023-05-07T08:25:59;6.45;;;5.95;;
1446;SDS011;717;51.522;7.266;2023-05-07T08:28:28;6.82;;;6.25;;
1446;SDS011;717;51.522;7.266;2023-05-07T08:30:59;6.65;;;6.05;;
1446;SDS011;717;51.522;7.266;2023-05-07T08:33:28;7.75;;;7.07;;
1446;SDS011;717;51.522;7.266;2023-05-07T08:35:56;7.00;;;6.40;;
1446;SDS011;717;51.522;7.266;2023-05-07T08:38:25;7.53;;;6.82;;
1446;SDS011;717;51.522;7.266;2023-05-07T08:40:53;8.70;;;7.80;;
1446;SDS011;717;51.522;7.266;2023-05-07T08:43:22;8.88;;;7.63;;
1446;SDS011;717;51.522;7.266;2023-05-07T08:45:54;8.52;;;7.68;;
1446;SDS011;717;51.522;7.266;2023-05-07T08:48:25;8.30;;;7.60;;
1446;SDS011;717;51.522;7.266;2023-05-07T08:50:57;7.60;;;6.55;;
1446;SDS011;717;51.522;7.266;2023-05-07T08:53:26;8.38;;;7.57;;
1446;SDS011;717;51.522;7.266;2023-05-07T08:55:54;7.45;;;6.75;;
1446;SDS011;717;51.522;7.266;2023-05-07T08:58:23;7.32;;;6.63;;
1446;SDS011;717;51.522;7.266;2023-05-07T09:00:52;7.60;;;7.00;;
1446;SDS011;717;51.522;7.266;2023-05-07T09:03:21;6.95;;;6.35;;
1446;SDS011;717;51.522;7.266;2023-05-07T09:05:53;7.47;;;6.55;;
1446;SDS011;717;51.522;7.266;2023-05-07T09:08:24;9.18;;;6.55;;
1446;SDS011;717;51.522;7.266;2023-05-07T09:10:53;7.40;;;6.80;;
1446;SDS011;717;51.522;7.266;2023-05-07T09:13:22;7.57;;;6.82;;
1446;SDS011;717;51.522;7.266;2023-05-07T09:15:50;7.72;;;7.00;;
1446;SDS011;717;51.522;7.266;2023-05-07T09:18:19;8.48;;;7.68;;
1446;SDS011;717;51.522;7.266;2023-05-07T09:20:48;9.00;;;8.20;;
1446;SDS011;717;51.522;7.266;2023-05-07T09:23:19;8.65;;;7.95;;
1446;SDS011;717;51.522;7.266;2023-05-07T09:25:48;8.65;;;7.85;;
1446;SDS011;717;51.522;7.266;2023-05-07T09:28:17;8.45;;;7.65;;
1446;SDS011;717;51.522;7.266;2023-05-07T09:30:45;9.45;;;7.35;;
1446;SDS011;717;51.522;7.266;2023-05-07T09:33:15;8.27;;;7.57;;
1446;SDS011;717;51.522;7.266;2023-05-07T09:35:43;7.30;;;6.60;;
1446;SDS011;717;51.522;7.266;2023-05-07T09:38:12;8.60;;;7.72;;
1446;SDS011;717;51.522;7.266;2023-05-07T09:40:43;8.88;;;8.07;;
1446;SDS011;717;51.522;7.266;2023-05-07T09:43:12;10.05;;;9.15;;
1446;SDS011;717;51.522;7.266;2023-05-07T09:45:41;9.90;;;8.77;;
1446;SDS011;717;51.522;7.266;2023-05-07T09:48:11;8.73;;;7.93;;
1446;SDS011;717;51.522;7.266;2023-05-07T09:50:44;8.88;;;8.13;;
1446;SDS011;717;51.522;7.266;2023-05-07T09:53:16;7.57;;;6.72;;
1446;SDS011;717;51.522;7.266;2023-05-07T09:55:48;7.03;;;6.43;;
1446;SDS011;717;51.522;7.266;2023-05-07T09:58:18;8.20;;;7.40;;
1446;SDS011;717;51.522;7.266;2023-05-07T10:00:48;8.68;;;7.75;;
1446;SDS011;717;51.522;7.266;2023-05-07T10:03:18;9.30;;;8.32;;
1446;SDS011;717;51.522;7.266;2023-05-07T10:05:47;8.70;;;7.90;;
1446;SDS011;717;51.522;7.266;2023-05-07T10:08:18;7.00;;;6.40;;
1446;SDS011;717;51.522;7.266;2023-05-07T10:10:50;7.05;;;6.32;;
1446;SDS011;717;51.522;7.266;2023-05-07T10:13:18;7.88;;;7.15;;
1446;SDS011;717;51.522;7.266;2023-05-07T10:15:48;7.20;;;6.38;;
1446;SDS011;717;51.522;7.266;2023-05-07T10:18:18;7.43;;;6.72;;
1446;SDS011;717;51.522;7.266;2023-05-07T10:20:54;7.10;;;6.40;;
1446;SDS011;717;51.522;7.266;2023-05-07T10:23:30;7.10;;;6.40;;
1446;SDS011;717;51.522;7.266;2023-05-07T10:26:05;6.97;;;6.28;;
1446;SDS011;717;51.522;7.266;2023-05-07T10:28:36;7.80;;;7.00;;
1446;SDS011;717;51.522;7.266;2023-05-07T10:31:12;7.82;;;7.13;;
1446;SDS011;717;51.522;7.266;2023-05-07T10:33:54;7.35;;;6.65;;
1446;SDS011;717;51.522;7.266;2023-05-07T10:36:24;6.97;;;5.78;;
1446;SDS011;717;51.522;7.266;2023-05-07T10:38:53;6.45;;;5.85;;
1446;SDS011;717;51.522;7.266;2023-05-07T10:41:25;8.35;;;7.55;;
1446;SDS011;717;51.522;7.266;2023-05-07T10:43:54;6.38;;;5.80;;
1446;SDS011;717;51.522;7.266;2023-05-07T10:46:26;7.25;;;6.55;;
1446;SDS011;717;51.522;7.266;2023-05-07T10:51:40;7.50;;;6.68;;
1446;SDS011;717;51.522;7.266;2023-05-07T10:54:18;8.50;;;7.68;;
1446;SDS011;717;51.522;7.266;2023-05-07T10:56:50;9.07;;;7.93;;
1446;SDS011;717;51.522;7.266;2023-05-07T11:02:10;6.90;;;6.22;;
1446;SDS011;717;51.522;7.266;2023-05-07T11:04:40;5.97;;;5.47;;
1446;SDS011;717;51.522;7.266;2023-05-07T11:10:02;5.45;;;4.95;;
1446;SDS011;717;51.522;7.266;2023-05-07T11:18:11;6.03;;;5.47;;
1446;SDS011;717;51.522;7.266;2023-05-07T11:26:25;5.32;;;4.50;;
1446;SDS011;717;51.522;7.266;2023-05-07T11:28:59;4.50;;;3.88;;
1446;SDS011;717;51.522;7.266;2023-05-07T11:31:28;5.05;;;4.63;;
1446;SDS011;717;51.522;7.266;2023-05-07T11:33:57;5.47;;;4.90;;
1446;SDS011;717;51.522;7.266;2023-05-07T11:36:30;5.25;;;4.75;;
1446;SDS011;717;51.522;7.266;2023-05-07T11:39:00;7.03;;;5.20;;
1446;SDS011;717;51.522;7.266;2023-05-07T11:41:34;6.32;;;5.75;;
1446;SDS011;717;51.522;7.266;2023-05-07T11:44:06;5.55;;;5.15;;
1446;SDS011;717;51.522;7.266;2023-05-07T11:46:35;5.68;;;5.18;;
1446;SDS011;717;51.522;7.266;2023-05-07T11:49:03;5.97;;;5.40;;
1446;SDS011;717;51.522;7.266;2023-05-07T11:51:33;5.18;;;4.68;;
1446;SDS011;717;51.522;7.266;2023-05-07T11:54:03;5.28;;;4.78;;
1446;SDS011;717;51.522;7.266;2023-05-07T11:56:33;4.97;;;4.50;;
1446;SDS011;717;51.522;7.266;2023-05-07T11:59:02;5.40;;;4.90;;
1446;SDS011;717;51.522;7.266;2023-05-07T12:01:34;6.55;;;5.43;;
1446;SDS011;717;51.522;7.266;2023-05-07T12:04:04;6.30;;;5.43;;
1446;SDS011;717;51.522;7.266;2023-05-07T12:06:35;7.03;;;4.93;;
1446;SDS011;717;51.522;7.266;2023-05-07T12:09:05;5.28;;;4.78;;
1446;SDS011;717;51.522;7.266;2023-05-07T12:11:36;5.40;;;4.90;;
1446;SDS011;717;51.522;7.266;2023-05-07T12:14:06;5.03;;;4.43;;
1446;SDS011;717;51.522;7.266;2023-05-07T12:16:38;6.32;;;5.72;;
1446;SDS011;717;51.522;7.266;2023-05-07T12:19:07;6.00;;;5.40;;
1446;SDS011;717;51.522;7.266;2023-05-07T12:21:37;6.03;;;5.43;;
1446;SDS011;717;51.522;7.266;2023-05-07T12:24:07;5.40;;;4.90;;
1446;SDS011;717;51.522;7.266;2023-05-07T12:26:37;5.20;;;4.40;;
1446;SDS011;717;51.522;7.266;2023-05-07T12:29:06;3.90;;;2.90;;
1446;SDS011;717;51.522;7.266;2023-05-07T12:31:38;5.35;;;3.10;;
1446;SDS011;717;51.522;7.266;2023-05-07T12:34:08;2.95;;;2.65;;
1446;SDS011;717;51.522;7.266;2023-05-07T12:36:39;3.05;;;2.85;;
1446;SDS011;717;51.522;7.266;2023-05-07T12:39:08;3.17;;;2.75;;
1446;SDS011;717;51.522;7.266;2023-05-07T12:41:52;2.97;;;2.40;;
1446;SDS011;717;51.522;7.266;2023-05-07T12:44:23;4.18;;;2.67;;
1446;SDS011;717;51.522;7.266;2023-05-07T12:46:54;2.80;;;2.60;;
1446;SDS011;717;51.522;7.266;2023-05-07T12:49:23;3.33;;;2.85;;
1446;SDS011;717;51.522;7.266;2023-05-07T12:51:53;4.72;;;3.15;;
1446;SDS011;717;51.522;7.266;2023-05-07T12:54:28;3.53;;;3.20;;
1446;SDS011;717;51.522;7.266;2023-05-07T12:57:00;5.28;;;3.60;;
1446;SDS011;717;51.522;7.266;2023-05-07T12:59:30;4.05;;;3.75;;
1446;SDS011;717;51.522;7.266;2023-05-07T13:02:02;3.88;;;3.53;;
1446;SDS011;717;51.522;7.266;2023-05-07T13:04:31;4.28;;;3.88;;
1446;SDS011;717;51.522;7.266;2023-05-07T13:07:00;4.38;;;3.97;;
1446;SDS011;717;51.522;7.266;2023-05-07T13:09:29;4.35;;;3.92;;
1446;SDS011;717;51.522;7.266;2023-05-07T13:11:59;4.20;;;3.80;;
1446;SDS011;717;51.522;7.266;2023-05-07T13:14:27;4.40;;;3.75;;
1446;SDS011;717;51.522;7.266;2023-05-07T13:16:56;4.32;;;3.50;;
1446;SDS011;717;51.522;7.266;2023-05-07T13:19:27;3.20;;;3.00;;
1446;SDS011;717;51.522;7.266;2023-05-07T13:21:56;4.32;;;3.92;;
1446;SDS011;717;51.522;7.266;2023-05-07T13:24:24;4.30;;;3.90;;
1446;SDS011;717;51.522;7.266;2023-05-07T13:26:53;4.28;;;3.47;;
1446;SDS011;717;51.522;7.266;2023-05-07T13:29:22;3.50;;;3.17;;
1446;SDS011;717;51.522;7.266;2023-05-07T13:31:55;4.00;;;3.05;;
1446;SDS011;717;51.522;7.266;2023-05-07T13:34:24;3.03;;;2.78;;
1446;SDS011;717;51.522;7.266;2023-05-07T13:36:55;2.72;;;2.53;;
1446;SDS011;717;51.522;7.266;2023-05-07T13:39:24;3.67;;;2.70;;
1446;SDS011;717;51.522;7.266;2023-05-07T13:41:52;3.38;;;3.10;;
1446;SDS011;717;51.522;7.266;2023-05-07T13:44:21;3.90;;;3.15;;
1446;SDS011;717;51.522;7.266;2023-05-07T13:46:50;4.20;;;3.22;;
1446;SDS011;717;51.522;7.266;2023-05-07T13:49:19;4.95;;;4.18;;
1446;SDS011;717;51.522;7.266;2023-05-07T13:51:50;4.40;;;4.00;;
1446;SDS011;717;51.522;7.266;2023-05-07T13:54:18;4.57;;;4.10;;
1446;SDS011;717;51.522;7.266;2023-05-07T13:56:47;4.32;;;4.03;;
1446;SDS011;717;51.522;7.266;2023-05-07T13:59:15;5.80;;;4.55;;
1446;SDS011;717;51.522;7.266;2023-05-07T14:01:44;5.65;;;5.15;;
1446;SDS011;717;51.522;7.266;2023-05-07T14:04:13;6.10;;;5.50;;
1446;SDS011;717;51.522;7.266;2023-05-07T14:06:41;5.43;;;4.93;;
1446;SDS011;717;51.522;7.266;2023-05-07T14:09:12;6.45;;;5.85;;
1446;SDS011;717;51.522;7.266;2023-05-07T14:11:41;6.45;;;5.85;;
1446;SDS011;717;51.522;7.266;2023-05-07T14:14:11;5.88;;;5.38;;
1446;SDS011;717;51.522;7.266;2023-05-07T14:16:39;6.80;;;6.10;;
1446;SDS011;717;51.522;7.266;2023-05-07T14:19:08;7.97;;;5.65;;
1446;SDS011;717;51.522;7.266;2023-05-07T14:21:37;6.13;;;5.40;;
1446;SDS011;717;51.522;7.266;2023-05-07T14:24:06;6.80;;;6.18;;
1446;SDS011;717;51.522;7.266;2023-05-07T14:26:37;6.18;;;5.63;;
1446;SDS011;717;51.522;7.266;2023-05-07T14:29:06;6.90;;;6.05;;
1446;SDS011;717;51.522;7.266;2023-05-07T14:31:34;6.22;;;5.65;;
1446;SDS011;717;51.522;7.266;2023-05-07T14:34:03;6.05;;;5.45;;
1446;SDS011;717;51.522;7.266;2023-05-07T14:36:32;7.57;;;6.28;;
1446;SDS011;717;51.522;7.266;2023-05-07T14:39:00;6.85;;;6.25;;
1446;SDS011;717;51.522;7.266;2023-05-07T14:41:29;6.18;;;5.68;;
1446;SDS011;717;51.522;7.266;2023-05-07T14:44:00;7.15;;;6.03;;
1446;SDS011;717;51.522;7.266;2023-05-07T14:46:29;6.60;;;6.00;;
1446;SDS011;717;51.522;7.266;2023-05-07T14:48:58;7.13;;;6.47;;
1446;SDS011;717;51.522;7.266;2023-05-07T14:51:26;7.47;;;6.78;;
1446;SDS011;717;51.522;7.266;2023-05-07T14:53:55;6.70;;;6.05;;
1446;SDS011;717;51.522;7.266;2023-05-07T14:56:25;6.90;;;6.25;;
1446;SDS011;717;51.522;7.266;2023-05-07T14:58:53;6.57;;;5.97;;
1446;SDS011;717;51.522;7.266;2023-05-07T15:01:26;5.97;;;5.45;;
1446;SDS011;717;51.522;7.266;2023-05-07T15:03:54;5.60;;;5.10;;
1446;SDS011;717;51.522;7.266;2023-05-07T15:06:23;5.93;;;5.28;;
1446;SDS011;717;51.522;7.266;2023-05-07T15:08:52;6.32;;;5.72;;
1446;SDS011;717;51.522;7.266;2023-05-07T15:11:20;5.75;;;5.25;;
1446;SDS011;717;51.522;7.266;2023-05-07T15:13:49;6.03;;;5.43;;
1446;SDS011;717;51.522;7.266;2023-05-07T15:16:17;5.68;;;5.18;;
1446;SDS011;717;51.522;7.266;2023-05-07T15:18:49;6.65;;;5.95;;
1446;SDS011;717;51.522;7.266;2023-05-07T15:21:17;6.05;;;5.45;;
1446;SDS011;717;51.522;7.266;2023-05-07T15:23:46;5.57;;;5.07;;
1446;SDS011;717;51.522;7.266;2023-05-07T15:26:14;5.32;;;4.82;;
1446;SDS011;717;51.522;7.266;2023-05-07T15:28:43;5.60;;;5.10;;
1446;SDS011;717;51.522;7.266;2023-05-07T15:31:11;5.18;;;4.68;;
1446;SDS011;717;51.522;7.266;2023-05-07T15:33:40;5.07;;;4.63;;
1446;SDS011;717;51.522;7.266;2023-05-07T15:36:12;6.50;;;5.45;;
1446;SDS011;717;51.522;7.266;2023-05-07T15:38:41;5.18;;;4.78;;
1446;SDS011;717;51.522;7.266;2023-05-07T15:41:09;5.05;;;4.63;;
1446;SDS011;717;51.522;7.266;2023-05-07T15:43:42;5.05;;;4.65;;
1446;SDS011;717;51.522;7.266;2023-05-07T15:46:16;5.47;;;4.97;;
1446;SDS011;717;51.522;7.266;2023-05-07T15:48:45;7.00;;;5.25;;
1446;SDS011;717;51.522;7.266;2023-05-07T15:51:17;5.43;;;4.93;;